sensor_id;sensor_type;location;lat;lon;timestamp;P1;durP1;ratioP1;P2;durP2;ratioP2
6007;SDS011;3032;49.484;11.112;2023-08-21T00:00:13;12.97;;;11.60;;
6007;SDS011;3032;49.484;11.112;2023-08-21T00:02:39;13.33;;;11.93;;
6007;SDS011;3032;49.484;11.112;2023-08-21T00:05:05;13.60;;;11.47;;
6007;SDS011;3032;49.484;11.112;2023-08-21T00:07:31;14.05;;;11.60;;
6007;SDS011;3032;49.484;11.112;2023-08-21T00:09:57;17.43;;;10.80;;
6007;SDS011;3032;49.484;11.112;2023-08-21T00:12:22;12.93;;;11.33;;
6007;SDS011;3032;49.484;11.112;2023-08-21T00:14:48;13.40;;;11.30;;
6007;SDS011;3032;49.484;11.112;2023-08-21T00:17:13;13.20;;;11.87;;
6007;SDS011;3032;49.484;11.112;2023-08-21T00:19:39;12.53;;;11.33;;
6007;SDS011;3032;49.484;11.112;2023-08-21T00:22:04;16.30;;;11.90;;
6007;SDS011;3032;49.484;11.112;2023-08-21T00:24:30;12.50;;;10.87;;
6007;SDS011;3032;49.484;11.112;2023-08-21T00:26:55;12.80;;;11.10;;
6007;SDS011;3032;49.484;11.112;2023-08-21T00:29:21;11.00;;;9.90;;
6007;SDS011;3032;49.484;11.112;2023-08-21T00:31:47;12.50;;;11.40;;
6007;SDS011;3032;49.484;11.112;2023-08-21T00:34:12;11.77;;;10.57;;
6007;SDS011;3032;49.484;11.112;2023-08-21T00:36:38;14.90;;;10.80;;
6007;SDS011;3032;49.484;11.112;2023-08-21T00:39:04;12.80;;;10.33;;
6007;SDS011;3032;49.484;11.112;2023-08-21T00:41:29;13.20;;;11.17;;
6007;SDS011;3032;49.484;11.112;2023-08-21T00:43:56;12.70;;;11.15;;
6007;SDS011;3032;49.484;11.112;2023-08-21T00:46:21;12.60;;;10.97;;
6007;SDS011;3032;49.484;11.112;2023-08-21T00:48:47;12.83;;;11.17;;
6007;SDS011;3032;49.484;11.112;2023-08-21T00:51:14;15.10;;;11.77;;
6007;SDS011;3032;49.484;11.112;2023-08-21T00:53:41;20.05;;;11.65;;
6007;SDS011;3032;49.484;11.112;2023-08-21T00:56:07;13.40;;;11.70;;
6007;SDS011;3032;49.484;11.112;2023-08-21T00:58:33;11.77;;;10.55;;
6007;SDS011;3032;49.484;11.112;2023-08-21T01:00:59;14.00;;;11.10;;
6007;SDS011;3032;49.484;11.112;2023-08-21T01:03:24;15.47;;;9.93;;
6007;SDS011;3032;49.484;11.112;2023-08-21T01:05:50;12.43;;;11.25;;
6007;SDS011;3032;49.484;11.112;2023-08-21T01:16:04;12.60;;;11.20;;
6007;SDS011;3032;49.484;11.112;2023-08-21T01:18:31;13.32;;;10.88;;
6007;SDS011;3032;49.484;11.112;2023-08-21T01:20:59;15.55;;;11.23;;
6007;SDS011;3032;49.484;11.112;2023-08-21T01:23:37;14.48;;;10.90;;
6007;SDS011;3032;49.484;11.112;2023-08-21T01:26:03;12.55;;;11.25;;
6007;SDS011;3032;49.484;11.112;2023-08-21T01:28:30;15.15;;;12.77;;
6007;SDS011;3032;49.484;11.112;2023-08-21T01:31:03;14.65;;;13.05;;
6007;SDS011;3032;49.484;11.112;2023-08-21T01:33:41;21.67;;;17.70;;
6007;SDS011;3032;49.484;11.112;2023-08-21T01:36:12;17.95;;;14.95;;
6007;SDS011;3032;49.484;11.112;2023-08-21T01:38:39;20.38;;;17.30;;
6007;SDS011;3032;49.484;11.112;2023-08-21T01:41:05;27.40;;;22.95;;
6007;SDS011;3032;49.484;11.112;2023-08-21T01:43:30;30.27;;;24.97;;
6007;SDS011;3032;49.484;11.112;2023-08-21T01:45:56;24.63;;;19.77;;
6007;SDS011;3032;49.484;11.112;2023-08-21T01:48:22;20.73;;;17.80;;
6007;SDS011;3032;49.484;11.112;2023-08-21T01:50:48;22.03;;;18.83;;
6007;SDS011;3032;49.484;11.112;2023-08-21T01:53:13;26.50;;;22.43;;
6007;SDS011;3032;49.484;11.112;2023-08-21T01:55:39;37.33;;;25.23;;
6007;SDS011;3032;49.484;11.112;2023-08-21T01:58:04;24.87;;;22.30;;
6007;SDS011;3032;49.484;11.112;2023-08-21T02:00:30;30.23;;;21.97;;
6007;SDS011;3032;49.484;11.112;2023-08-21T02:02:55;25.50;;;21.57;;
6007;SDS011;3032;49.484;11.112;2023-08-21T02:05:21;20.13;;;18.13;;
6007;SDS011;3032;49.484;11.112;2023-08-21T02:07:47;23.73;;;18.67;;
6007;SDS011;3032;49.484;11.112;2023-08-21T02:10:12;20.40;;;18.17;;
6007;SDS011;3032;49.484;11.112;2023-08-21T02:12:38;21.55;;;19.33;;
6007;SDS011;3032;49.484;11.112;2023-08-21T02:15:04;28.70;;;20.27;;
6007;SDS011;3032;49.484;11.112;2023-08-21T02:17:30;28.13;;;25.33;;
6007;SDS011;3032;49.484;11.112;2023-08-21T02:19:56;33.30;;;23.67;;
6007;SDS011;3032;49.484;11.112;2023-08-21T02:22:21;26.07;;;23.27;;
6007;SDS011;3032;49.484;11.112;2023-08-21T02:24:47;23.30;;;20.80;;
6007;SDS011;3032;49.484;11.112;2023-08-21T02:27:13;23.27;;;20.83;;
6007;SDS011;3032;49.484;11.112;2023-08-21T02:29:38;21.43;;;19.33;;
6007;SDS011;3032;49.484;11.112;2023-08-21T02:32:04;24.53;;;21.10;;
6007;SDS011;3032;49.484;11.112;2023-08-21T02:34:30;23.17;;;20.73;;
6007;SDS011;3032;49.484;11.112;2023-08-21T02:36:55;20.23;;;18.17;;
6007;SDS011;3032;49.484;11.112;2023-08-21T02:39:21;22.70;;;20.37;;
6007;SDS011;3032;49.484;11.112;2023-08-21T02:41:46;23.77;;;19.27;;
6007;SDS011;3032;49.484;11.112;2023-08-21T02:44:12;22.77;;;20.47;;
6007;SDS011;3032;49.484;11.112;2023-08-21T02:46:38;21.13;;;19.20;;
6007;SDS011;3032;49.484;11.112;2023-08-21T02:49:03;29.07;;;22.30;;
6007;SDS011;3032;49.484;11.112;2023-08-21T02:51:29;21.97;;;19.60;;
6007;SDS011;3032;49.484;11.112;2023-08-21T02:53:54;26.07;;;20.00;;
6007;SDS011;3032;49.484;11.112;2023-08-21T02:56:20;21.27;;;19.00;;
6007;SDS011;3032;49.484;11.112;2023-08-21T02:58:46;21.73;;;19.53;;
6007;SDS011;3032;49.484;11.112;2023-08-21T03:01:11;25.07;;;22.27;;
6007;SDS011;3032;49.484;11.112;2023-08-21T03:03:37;25.53;;;22.83;;
6007;SDS011;3032;49.484;11.112;2023-08-21T03:06:02;24.73;;;22.27;;
6007;SDS011;3032;49.484;11.112;2023-08-21T03:08:28;26.40;;;22.70;;
6007;SDS011;3032;49.484;11.112;2023-08-21T03:10:54;23.77;;;21.43;;
6007;SDS011;3032;49.484;11.112;2023-08-21T03:13:19;25.60;;;22.67;;
6007;SDS011;3032;49.484;11.112;2023-08-21T03:15:45;25.47;;;22.87;;
6007;SDS011;3032;49.484;11.112;2023-08-21T03:18:10;21.03;;;18.83;;
6007;SDS011;3032;49.484;11.112;2023-08-21T03:20:36;34.30;;;27.67;;
6007;SDS011;3032;49.484;11.112;2023-08-21T03:23:02;30.37;;;27.07;;
6007;SDS011;3032;49.484;11.112;2023-08-21T03:25:27;25.37;;;22.63;;
6007;SDS011;3032;49.484;11.112;2023-08-21T03:27:53;30.37;;;27.10;;
6007;SDS011;3032;49.484;11.112;2023-08-21T03:30:19;25.87;;;22.97;;
6007;SDS011;3032;49.484;11.112;2023-08-21T03:32:44;24.43;;;22.10;;
6007;SDS011;3032;49.484;11.112;2023-08-21T03:35:10;23.23;;;20.87;;
6007;SDS011;3032;49.484;11.112;2023-08-21T03:37:36;30.10;;;25.70;;
6007;SDS011;3032;49.484;11.112;2023-08-21T03:40:05;27.52;;;22.05;;
6007;SDS011;3032;49.484;11.112;2023-08-21T03:42:31;34.85;;;28.85;;
6007;SDS011;3032;49.484;11.112;2023-08-21T03:44:57;28.20;;;25.17;;
6007;SDS011;3032;49.484;11.112;2023-08-21T03:47:22;34.10;;;28.70;;
6007;SDS011;3032;49.484;11.112;2023-08-21T03:49:48;26.23;;;23.53;;
6007;SDS011;3032;49.484;11.112;2023-08-21T03:52:13;33.50;;;29.97;;
6007;SDS011;3032;49.484;11.112;2023-08-21T03:54:39;26.10;;;23.50;;
6007;SDS011;3032;49.484;11.112;2023-08-21T03:57:05;33.13;;;29.47;;
6007;SDS011;3032;49.484;11.112;2023-08-21T03:59:31;34.70;;;28.40;;
6007;SDS011;3032;49.484;11.112;2023-08-21T04:01:56;40.97;;;34.10;;
6007;SDS011;3032;49.484;11.112;2023-08-21T04:04:22;31.17;;;27.80;;
6007;SDS011;3032;49.484;11.112;2023-08-21T04:06:47;27.43;;;24.63;;
6007;SDS011;3032;49.484;11.112;2023-08-21T04:09:13;26.20;;;23.50;;
6007;SDS011;3032;49.484;11.112;2023-08-21T04:11:39;31.17;;;27.50;;
6007;SDS011;3032;49.484;11.112;2023-08-21T04:14:04;28.80;;;25.83;;
6007;SDS011;3032;49.484;11.112;2023-08-21T04:16:30;32.80;;;29.33;;
6007;SDS011;3032;49.484;11.112;2023-08-21T04:18:56;33.33;;;27.70;;
6007;SDS011;3032;49.484;11.112;2023-08-21T04:21:22;31.83;;;28.48;;
6007;SDS011;3032;49.484;11.112;2023-08-21T04:23:48;33.53;;;29.90;;
6007;SDS011;3032;49.484;11.112;2023-08-21T04:26:13;32.23;;;28.60;;
6007;SDS011;3032;49.484;11.112;2023-08-21T04:28:39;23.50;;;21.20;;
6007;SDS011;3032;49.484;11.112;2023-08-21T04:31:05;25.13;;;22.63;;
6007;SDS011;3032;49.484;11.112;2023-08-21T04:33:31;22.25;;;20.00;;
6007;SDS011;3032;49.484;11.112;2023-08-21T04:35:57;20.77;;;18.73;;
6007;SDS011;3032;49.484;11.112;2023-08-21T04:38:22;22.97;;;20.67;;
6007;SDS011;3032;49.484;11.112;2023-08-21T04:40:48;27.23;;;24.33;;
6007;SDS011;3032;49.484;11.112;2023-08-21T04:43:14;23.73;;;21.17;;
6007;SDS011;3032;49.484;11.112;2023-08-21T04:45:46;34.90;;;29.50;;
6007;SDS011;3032;49.484;11.112;2023-08-21T04:48:13;28.40;;;25.13;;
6007;SDS011;3032;49.484;11.112;2023-08-21T04:50:38;20.10;;;18.17;;
6007;SDS011;3032;49.484;11.112;2023-08-21T04:53:04;26.87;;;21.57;;
6007;SDS011;3032;49.484;11.112;2023-08-21T04:55:30;19.70;;;17.88;;
6007;SDS011;3032;49.484;11.112;2023-08-21T04:57:56;21.53;;;18.20;;
6007;SDS011;3032;49.484;11.112;2023-08-21T05:00:21;20.20;;;18.20;;
6007;SDS011;3032;49.484;11.112;2023-08-21T05:02:47;25.50;;;22.53;;
6007;SDS011;3032;49.484;11.112;2023-08-21T05:05:12;25.43;;;20.30;;
6007;SDS011;3032;49.484;11.112;2023-08-21T05:07:38;25.00;;;21.23;;
6007;SDS011;3032;49.484;11.112;2023-08-21T05:10:04;24.13;;;20.60;;
6007;SDS011;3032;49.484;11.112;2023-08-21T05:12:30;19.45;;;17.55;;
6007;SDS011;3032;49.484;11.112;2023-08-21T05:14:55;17.47;;;15.67;;
6007;SDS011;3032;49.484;11.112;2023-08-21T05:17:21;16.97;;;15.43;;
6007;SDS011;3032;49.484;11.112;2023-08-21T05:19:46;17.33;;;15.80;;
6007;SDS011;3032;49.484;11.112;2023-08-21T05:22:12;19.13;;;17.10;;
6007;SDS011;3032;49.484;11.112;2023-08-21T05:24:37;22.73;;;20.30;;
6007;SDS011;3032;49.484;11.112;2023-08-21T05:27:03;19.90;;;18.00;;
6007;SDS011;3032;49.484;11.112;2023-08-21T05:29:29;19.63;;;17.77;;
6007;SDS011;3032;49.484;11.112;2023-08-21T05:31:55;19.83;;;17.93;;
6007;SDS011;3032;49.484;11.112;2023-08-21T05:34:20;16.93;;;15.40;;
6007;SDS011;3032;49.484;11.112;2023-08-21T05:36:46;19.00;;;17.00;;
6007;SDS011;3032;49.484;11.112;2023-08-21T05:39:12;20.67;;;16.17;;
6007;SDS011;3032;49.484;11.112;2023-08-21T05:41:38;19.13;;;17.30;;
6007;SDS011;3032;49.484;11.112;2023-08-21T05:44:04;19.30;;;17.60;;
6007;SDS011;3032;49.484;11.112;2023-08-21T05:46:29;17.45;;;15.93;;
6007;SDS011;3032;49.484;11.112;2023-08-21T05:48:55;18.70;;;17.00;;
6007;SDS011;3032;49.484;11.112;2023-08-21T05:51:21;17.07;;;15.37;;
6007;SDS011;3032;49.484;11.112;2023-08-21T05:53:46;17.60;;;15.80;;
6007;SDS011;3032;49.484;11.112;2023-08-21T05:56:12;19.00;;;17.20;;
6007;SDS011;3032;49.484;11.112;2023-08-21T05:58:38;17.47;;;15.83;;
6007;SDS011;3032;49.484;11.112;2023-08-21T06:01:04;14.63;;;13.13;;
6007;SDS011;3032;49.484;11.112;2023-08-21T06:03:29;14.67;;;13.27;;
6007;SDS011;3032;49.484;11.112;2023-08-21T06:05:55;14.57;;;13.27;;
6007;SDS011;3032;49.484;11.112;2023-08-21T06:08:20;14.77;;;12.90;;
6007;SDS011;3032;49.484;11.112;2023-08-21T06:10:50;15.03;;;13.53;;
6007;SDS011;3032;49.484;11.112;2023-08-21T06:13:16;15.10;;;12.95;;
6007;SDS011;3032;49.484;11.112;2023-08-21T06:15:43;14.40;;;13.30;;
6007;SDS011;3032;49.484;11.112;2023-08-21T06:18:10;14.43;;;13.05;;
6007;SDS011;3032;49.484;11.112;2023-08-21T06:20:36;18.27;;;15.30;;
6007;SDS011;3032;49.484;11.112;2023-08-21T06:23:01;19.67;;;18.00;;
6007;SDS011;3032;49.484;11.112;2023-08-21T06:25:27;18.57;;;16.93;;
6007;SDS011;3032;49.484;11.112;2023-08-21T06:27:55;18.13;;;16.30;;
6007;SDS011;3032;49.484;11.112;2023-08-21T06:30:21;19.47;;;17.23;;
6007;SDS011;3032;49.484;11.112;2023-08-21T06:32:46;17.83;;;16.10;;
6007;SDS011;3032;49.484;11.112;2023-08-21T06:35:12;16.57;;;15.00;;
6007;SDS011;3032;49.484;11.112;2023-08-21T06:37:39;15.88;;;14.35;;
6007;SDS011;3032;49.484;11.112;2023-08-21T06:40:04;16.53;;;15.07;;
6007;SDS011;3032;49.484;11.112;2023-08-21T06:42:31;16.98;;;15.27;;
6007;SDS011;3032;49.484;11.112;2023-08-21T06:44:57;20.00;;;18.07;;
6007;SDS011;3032;49.484;11.112;2023-08-21T06:47:23;18.80;;;17.00;;
6007;SDS011;3032;49.484;11.112;2023-08-21T06:49:48;19.37;;;17.50;;
6007;SDS011;3032;49.484;11.112;2023-08-21T06:52:14;21.37;;;16.93;;
6007;SDS011;3032;49.484;11.112;2023-08-21T06:54:39;19.87;;;17.73;;
6007;SDS011;3032;49.484;11.112;2023-08-21T06:57:05;17.57;;;15.97;;
6007;SDS011;3032;49.484;11.112;2023-08-21T06:59:31;14.50;;;13.10;;
6007;SDS011;3032;49.484;11.112;2023-08-21T07:02:00;15.90;;;14.52;;
6007;SDS011;3032;49.484;11.112;2023-08-21T07:04:29;13.35;;;12.32;;
6007;SDS011;3032;49.484;11.112;2023-08-21T07:06:55;13.70;;;12.50;;
6007;SDS011;3032;49.484;11.112;2023-08-21T07:09:20;13.70;;;12.50;;
6007;SDS011;3032;49.484;11.112;2023-08-21T07:11:46;13.60;;;12.40;;
6007;SDS011;3032;49.484;11.112;2023-08-21T07:14:11;13.67;;;12.47;;
6007;SDS011;3032;49.484;11.112;2023-08-21T07:16:41;12.48;;;11.48;;
6007;SDS011;3032;49.484;11.112;2023-08-21T07:19:07;13.03;;;11.83;;
6007;SDS011;3032;49.484;11.112;2023-08-21T07:21:34;13.20;;;12.10;;
6007;SDS011;3032;49.484;11.112;2023-08-21T07:24:04;13.05;;;11.82;;
6007;SDS011;3032;49.484;11.112;2023-08-21T07:26:30;12.43;;;11.13;;
6007;SDS011;3032;49.484;11.112;2023-08-21T07:28:56;10.73;;;9.77;;
6007;SDS011;3032;49.484;11.112;2023-08-21T07:31:22;11.87;;;10.80;;
6007;SDS011;3032;49.484;11.112;2023-08-21T07:33:48;13.70;;;12.57;;
6007;SDS011;3032;49.484;11.112;2023-08-21T07:36:14;14.80;;;13.33;;
6007;SDS011;3032;49.484;11.112;2023-08-21T07:38:43;13.27;;;12.20;;
6007;SDS011;3032;49.484;11.112;2023-08-21T07:41:09;12.93;;;11.87;;
6007;SDS011;3032;49.484;11.112;2023-08-21T07:43:37;12.50;;;11.60;;
6007;SDS011;3032;49.484;11.112;2023-08-21T07:46:05;13.27;;;11.97;;
6007;SDS011;3032;49.484;11.112;2023-08-21T07:48:31;13.50;;;10.93;;
6007;SDS011;3032;49.484;11.112;2023-08-21T07:50:58;11.40;;;10.50;;
6007;SDS011;3032;49.484;11.112;2023-08-21T07:53:24;11.60;;;10.40;;
6007;SDS011;3032;49.484;11.112;2023-08-21T07:55:50;11.20;;;10.10;;
6007;SDS011;3032;49.484;11.112;2023-08-21T07:58:16;10.80;;;9.87;;
6007;SDS011;3032;49.484;11.112;2023-08-21T08:00:41;13.13;;;11.17;;
6007;SDS011;3032;49.484;11.112;2023-08-21T08:03:10;12.37;;;11.30;;
6007;SDS011;3032;49.484;11.112;2023-08-21T08:05:36;13.40;;;12.13;;
6007;SDS011;3032;49.484;11.112;2023-08-21T08:08:03;13.80;;;12.52;;
6007;SDS011;3032;49.484;11.112;2023-08-21T08:10:29;12.33;;;11.23;;
6007;SDS011;3032;49.484;11.112;2023-08-21T08:12:54;12.40;;;11.10;;
6007;SDS011;3032;49.484;11.112;2023-08-21T08:15:21;13.03;;;10.83;;
6007;SDS011;3032;49.484;11.112;2023-08-21T08:17:47;11.63;;;10.80;;
6007;SDS011;3032;49.484;11.112;2023-08-21T08:20:17;10.43;;;9.47;;
6007;SDS011;3032;49.484;11.112;2023-08-21T08:22:43;10.03;;;9.30;;
6007;SDS011;3032;49.484;11.112;2023-08-21T08:25:08;10.63;;;9.60;;
6007;SDS011;3032;49.484;11.112;2023-08-21T08:27:35;8.97;;;8.37;;
6007;SDS011;3032;49.484;11.112;2023-08-21T08:30:01;8.70;;;7.63;;
6007;SDS011;3032;49.484;11.112;2023-08-21T08:32:28;9.63;;;8.83;;
6007;SDS011;3032;49.484;11.112;2023-08-21T08:34:53;8.50;;;7.57;;
6007;SDS011;3032;49.484;11.112;2023-08-21T08:37:19;10.00;;;9.03;;
6007;SDS011;3032;49.484;11.112;2023-08-21T08:39:47;8.93;;;8.30;;
6007;SDS011;3032;49.484;11.112;2023-08-21T08:42:13;9.73;;;8.80;;
6007;SDS011;3032;49.484;11.112;2023-08-21T08:44:40;9.73;;;8.83;;
6007;SDS011;3032;49.484;11.112;2023-08-21T08:47:06;8.37;;;7.73;;
6007;SDS011;3032;49.484;11.112;2023-08-21T08:49:33;8.90;;;8.30;;
6007;SDS011;3032;49.484;11.112;2023-08-21T08:51:59;10.30;;;9.47;;
6007;SDS011;3032;49.484;11.112;2023-08-21T08:54:25;10.20;;;9.50;;
6007;SDS011;3032;49.484;11.112;2023-08-21T08:56:52;10.53;;;9.70;;
6007;SDS011;3032;49.484;11.112;2023-08-21T08:59:18;10.40;;;9.60;;
6007;SDS011;3032;49.484;11.112;2023-08-21T09:01:44;9.73;;;8.90;;
6007;SDS011;3032;49.484;11.112;2023-08-21T09:04:09;9.30;;;8.60;;
6007;SDS011;3032;49.484;11.112;2023-08-21T09:06:35;9.10;;;8.43;;
6007;SDS011;3032;49.484;11.112;2023-08-21T09:09:01;8.93;;;8.33;;
6007;SDS011;3032;49.484;11.112;2023-08-21T09:11:27;9.77;;;8.80;;
6007;SDS011;3032;49.484;11.112;2023-08-21T09:13:53;9.50;;;8.60;;
6007;SDS011;3032;49.484;11.112;2023-08-21T09:16:20;9.53;;;8.33;;
6007;SDS011;3032;49.484;11.112;2023-08-21T09:18:50;8.90;;;8.30;;
6007;SDS011;3032;49.484;11.112;2023-08-21T09:21:22;9.20;;;8.40;;
6007;SDS011;3032;49.484;11.112;2023-08-21T09:23:49;7.60;;;7.00;;
6007;SDS011;3032;49.484;11.112;2023-08-21T09:26:23;8.47;;;7.90;;
6007;SDS011;3032;49.484;11.112;2023-08-21T09:28:50;7.60;;;6.87;;
6007;SDS011;3032;49.484;11.112;2023-08-21T09:31:23;7.40;;;6.73;;
6007;SDS011;3032;49.484;11.112;2023-08-21T09:33:58;6.87;;;6.53;;
6007;SDS011;3032;49.484;11.112;2023-08-21T09:36:26;7.87;;;7.17;;
6007;SDS011;3032;49.484;11.112;2023-08-21T09:38:52;6.97;;;6.60;;
6007;SDS011;3032;49.484;11.112;2023-08-21T09:41:21;6.90;;;6.50;;
6007;SDS011;3032;49.484;11.112;2023-08-21T09:43:48;6.70;;;6.30;;
6007;SDS011;3032;49.484;11.112;2023-08-21T09:46:14;7.10;;;6.60;;
6007;SDS011;3032;49.484;11.112;2023-08-21T09:48:41;7.00;;;6.60;;
6007;SDS011;3032;49.484;11.112;2023-08-21T09:51:09;7.57;;;6.90;;
6007;SDS011;3032;49.484;11.112;2023-08-21T09:53:35;8.73;;;7.33;;
6007;SDS011;3032;49.484;11.112;2023-08-21T09:56:01;8.47;;;7.67;;
6007;SDS011;3032;49.484;11.112;2023-08-21T09:58:29;8.63;;;7.87;;
6007;SDS011;3032;49.484;11.112;2023-08-21T10:00:56;7.20;;;6.60;;
6007;SDS011;3032;49.484;11.112;2023-08-21T10:03:24;7.43;;;6.83;;
6007;SDS011;3032;49.484;11.112;2023-08-21T10:05:51;6.50;;;6.07;;
6007;SDS011;3032;49.484;11.112;2023-08-21T10:08:21;6.30;;;5.90;;
6007;SDS011;3032;49.484;11.112;2023-08-21T10:10:49;6.53;;;6.10;;
6007;SDS011;3032;49.484;11.112;2023-08-21T10:13:15;5.30;;;4.70;;
6007;SDS011;3032;49.484;11.112;2023-08-21T10:15:41;5.40;;;5.10;;
6007;SDS011;3032;49.484;11.112;2023-08-21T10:18:21;4.97;;;4.57;;
6007;SDS011;3032;49.484;11.112;2023-08-21T10:20:48;4.97;;;4.57;;
6007;SDS011;3032;49.484;11.112;2023-08-21T10:23:27;5.23;;;4.83;;
6007;SDS011;3032;49.484;11.112;2023-08-21T10:25:58;6.67;;;6.07;;
6007;SDS011;3032;49.484;11.112;2023-08-21T10:28:24;5.33;;;4.83;;
6007;SDS011;3032;49.484;11.112;2023-08-21T10:34:07;5.00;;;4.60;;
6007;SDS011;3032;49.484;11.112;2023-08-21T10:39:12;4.40;;;4.23;;
6007;SDS011;3032;49.484;11.112;2023-08-21T10:47:30;4.57;;;4.27;;
6007;SDS011;3032;49.484;11.112;2023-08-21T10:49:58;4.30;;;4.00;;
6007;SDS011;3032;49.484;11.112;2023-08-21T10:52:26;4.77;;;4.43;;
6007;SDS011;3032;49.484;11.112;2023-08-21T10:54:54;4.70;;;4.50;;
6007;SDS011;3032;49.484;11.112;2023-08-21T10:57:25;5.17;;;4.63;;
6007;SDS011;3032;49.484;11.112;2023-08-21T10:59:56;5.33;;;4.80;;
6007;SDS011;3032;49.484;11.112;2023-08-21T11:02:28;4.80;;;4.50;;
6007;SDS011;3032;49.484;11.112;2023-08-21T11:04:55;5.80;;;4.47;;
6007;SDS011;3032;49.484;11.112;2023-08-21T11:07:21;4.50;;;4.20;;
6007;SDS011;3032;49.484;11.112;2023-08-21T11:09:48;4.57;;;4.30;;
6007;SDS011;3032;49.484;11.112;2023-08-21T11:12:17;4.63;;;4.33;;
6007;SDS011;3032;49.484;11.112;2023-08-21T11:14:48;4.80;;;4.50;;
6007;SDS011;3032;49.484;11.112;2023-08-21T11:17:14;4.30;;;4.00;;
6007;SDS011;3032;49.484;11.112;2023-08-21T11:19:40;5.03;;;4.50;;
6007;SDS011;3032;49.484;11.112;2023-08-21T11:22:07;4.47;;;4.20;;
6007;SDS011;3032;49.484;11.112;2023-08-21T11:27:16;5.70;;;4.40;;
6007;SDS011;3032;49.484;11.112;2023-08-21T11:29:46;4.30;;;4.00;;
6007;SDS011;3032;49.484;11.112;2023-08-21T11:34:41;7.23;;;5.00;;
6007;SDS011;3032;49.484;11.112;2023-08-21T11:37:09;5.57;;;5.27;;
6007;SDS011;3032;49.484;11.112;2023-08-21T11:39:41;4.80;;;4.57;;
6007;SDS011;3032;49.484;11.112;2023-08-21T11:42:09;4.37;;;4.07;;
6007;SDS011;3032;49.484;11.112;2023-08-21T11:44:43;5.17;;;4.87;;
6007;SDS011;3032;49.484;11.112;2023-08-21T11:47:11;5.10;;;4.20;;
6007;SDS011;3032;49.484;11.112;2023-08-21T11:49:38;3.87;;;3.67;;
6007;SDS011;3032;49.484;11.112;2023-08-21T11:52:06;3.60;;;3.50;;
6007;SDS011;3032;49.484;11.112;2023-08-21T11:54:36;3.60;;;3.30;;
6007;SDS011;3032;49.484;11.112;2023-08-21T11:57:06;3.77;;;3.47;;
6007;SDS011;3032;49.484;11.112;2023-08-21T11:59:41;3.60;;;3.33;;
6007;SDS011;3032;49.484;11.112;2023-08-21T12:02:17;4.00;;;3.70;;
6007;SDS011;3032;49.484;11.112;2023-08-21T12:04:51;3.87;;;3.67;;
6007;SDS011;3032;49.484;11.112;2023-08-21T12:07:26;5.23;;;4.23;;
6007;SDS011;3032;49.484;11.112;2023-08-21T12:09:51;4.90;;;4.50;;
6007;SDS011;3032;49.484;11.112;2023-08-21T12:12:17;5.07;;;4.37;;
6007;SDS011;3032;49.484;11.112;2023-08-21T12:14:43;5.00;;;4.60;;
6007;SDS011;3032;49.484;11.112;2023-08-21T12:17:09;4.70;;;4.40;;
6007;SDS011;3032;49.484;11.112;2023-08-21T12:19:34;7.23;;;4.40;;
6007;SDS011;3032;49.484;11.112;2023-08-21T12:22:00;8.07;;;4.60;;
6007;SDS011;3032;49.484;11.112;2023-08-21T12:24:25;4.33;;;4.03;;
6007;SDS011;3032;49.484;11.112;2023-08-21T12:26:51;5.83;;;4.57;;
6007;SDS011;3032;49.484;11.112;2023-08-21T12:29:17;5.57;;;5.07;;
6007;SDS011;3032;49.484;11.112;2023-08-21T12:31:42;5.70;;;5.40;;
6007;SDS011;3032;49.484;11.112;2023-08-21T12:34:08;5.40;;;5.00;;
6007;SDS011;3032;49.484;11.112;2023-08-21T12:36:34;5.00;;;4.60;;
6007;SDS011;3032;49.484;11.112;2023-08-21T12:39:01;5.73;;;5.33;;
6007;SDS011;3032;49.484;11.112;2023-08-21T12:41:28;5.73;;;5.20;;
6007;SDS011;3032;49.484;11.112;2023-08-21T12:43:54;6.07;;;5.50;;
6007;SDS011;3032;49.484;11.112;2023-08-21T12:46:20;6.00;;;5.40;;
6007;SDS011;3032;49.484;11.112;2023-08-21T12:48:46;6.10;;;5.60;;
6007;SDS011;3032;49.484;11.112;2023-08-21T12:51:11;9.60;;;6.27;;
6007;SDS011;3032;49.484;11.112;2023-08-21T12:53:37;10.70;;;6.10;;
6007;SDS011;3032;49.484;11.112;2023-08-21T12:56:03;6.07;;;5.57;;
6007;SDS011;3032;49.484;11.112;2023-08-21T12:58:29;7.43;;;6.07;;
6007;SDS011;3032;49.484;11.112;2023-08-21T13:00:54;6.17;;;5.30;;
6007;SDS011;3032;49.484;11.112;2023-08-21T13:03:20;4.93;;;4.50;;
6007;SDS011;3032;49.484;11.112;2023-08-21T13:05:45;6.93;;;5.03;;
6007;SDS011;3032;49.484;11.112;2023-08-21T13:08:11;7.83;;;4.80;;
6007;SDS011;3032;49.484;11.112;2023-08-21T13:10:37;5.77;;;5.27;;
6007;SDS011;3032;49.484;11.112;2023-08-21T13:13:02;5.73;;;4.73;;
6007;SDS011;3032;49.484;11.112;2023-08-21T13:15:28;8.90;;;4.43;;
6007;SDS011;3032;49.484;11.112;2023-08-21T13:17:54;4.40;;;4.00;;
6007;SDS011;3032;49.484;11.112;2023-08-21T13:20:19;5.47;;;5.00;;
6007;SDS011;3032;49.484;11.112;2023-08-21T13:22:46;5.00;;;3.87;;
6007;SDS011;3032;49.484;11.112;2023-08-21T13:25:18;4.40;;;4.00;;
6007;SDS011;3032;49.484;11.112;2023-08-21T13:27:45;8.93;;;4.00;;
6007;SDS011;3032;49.484;11.112;2023-08-21T13:30:11;7.40;;;4.23;;
6007;SDS011;3032;49.484;11.112;2023-08-21T13:32:38;7.43;;;4.40;;
6007;SDS011;3032;49.484;11.112;2023-08-21T13:35:04;4.50;;;4.20;;
6007;SDS011;3032;49.484;11.112;2023-08-21T13:37:32;4.50;;;4.17;;
6007;SDS011;3032;49.484;11.112;2023-08-21T13:39:58;4.60;;;4.30;;
6007;SDS011;3032;49.484;11.112;2023-08-21T13:42:25;4.10;;;3.70;;
6007;SDS011;3032;49.484;11.112;2023-08-21T13:44:55;4.70;;;4.30;;
6007;SDS011;3032;49.484;11.112;2023-08-21T13:47:21;7.60;;;4.37;;
6007;SDS011;3032;49.484;11.112;2023-08-21T13:49:47;4.50;;;3.73;;
6007;SDS011;3032;49.484;11.112;2023-08-21T13:52:13;3.93;;;3.53;;
6007;SDS011;3032;49.484;11.112;2023-08-21T13:54:38;4.43;;;4.13;;
6007;SDS011;3032;49.484;11.112;2023-08-21T13:57:04;3.77;;;3.57;;
6007;SDS011;3032;49.484;11.112;2023-08-21T13:59:29;5.97;;;4.00;;
6007;SDS011;3032;49.484;11.112;2023-08-21T14:01:55;4.30;;;3.93;;
6007;SDS011;3032;49.484;11.112;2023-08-21T14:04:20;5.37;;;4.03;;
6007;SDS011;3032;49.484;11.112;2023-08-21T14:06:46;6.10;;;3.70;;
6007;SDS011;3032;49.484;11.112;2023-08-21T14:09:12;4.13;;;3.83;;
6007;SDS011;3032;49.484;11.112;2023-08-21T14:11:38;4.40;;;4.10;;
6007;SDS011;3032;49.484;11.112;2023-08-21T14:14:03;3.53;;;3.33;;
6007;SDS011;3032;49.484;11.112;2023-08-21T14:16:29;4.10;;;3.80;;
6007;SDS011;3032;49.484;11.112;2023-08-21T14:18:54;4.10;;;3.80;;
6007;SDS011;3032;49.484;11.112;2023-08-21T14:21:20;4.03;;;3.63;;
6007;SDS011;3032;49.484;11.112;2023-08-21T14:23:45;3.70;;;3.50;;
6007;SDS011;3032;49.484;11.112;2023-08-21T14:26:11;5.23;;;3.60;;
6007;SDS011;3032;49.484;11.112;2023-08-21T14:28:36;3.60;;;3.50;;
6007;SDS011;3032;49.484;11.112;2023-08-21T14:31:02;4.10;;;3.77;;
6007;SDS011;3032;49.484;11.112;2023-08-21T14:33:28;3.80;;;3.60;;
6007;SDS011;3032;49.484;11.112;2023-08-21T14:35:54;4.20;;;3.80;;
6007;SDS011;3032;49.484;11.112;2023-08-21T14:38:19;4.40;;;4.20;;
6007;SDS011;3032;49.484;11.112;2023-08-21T14:40:45;4.43;;;4.03;;
6007;SDS011;3032;49.484;11.112;2023-08-21T14:43:11;4.37;;;3.90;;
6007;SDS011;3032;49.484;11.112;2023-08-21T14:45:36;4.47;;;4.10;;
6007;SDS011;3032;49.484;11.112;2023-08-21T14:48:02;4.50;;;4.10;;
6007;SDS011;3032;49.484;11.112;2023-08-21T14:50:28;4.17;;;3.87;;
6007;SDS011;3032;49.484;11.112;2023-08-21T14:52:54;3.80;;;3.50;;
6007;SDS011;3032;49.484;11.112;2023-08-21T14:55:19;4.23;;;4.03;;
6007;SDS011;3032;49.484;11.112;2023-08-21T14:57:45;4.03;;;3.70;;
6007;SDS011;3032;49.484;11.112;2023-08-21T15:00:10;4.60;;;4.30;;
6007;SDS011;3032;49.484;11.112;2023-08-21T15:02:37;5.57;;;4.80;;
6007;SDS011;3032;49.484;11.112;2023-08-21T15:05:03;6.60;;;5.20;;